sensor_id;sensor_type;location;lat;lon;timestamp;pressure;altitude;pressure_sealevel;temperature;humidity
7962;BME280;4026;43.652;24.906;2023-01-10T00:00:38;98496.91;;;1.18;100.00
7962;BME280;4026;43.652;24.906;2023-01-10T00:03:07;98490.28;;;0.96;100.00
7962;BME280;4026;43.652;24.906;2023-01-10T00:05:34;98487.38;;;1.05;100.00
7962;BME280;4026;43.652;24.906;2023-01-10T00:08:02;98487.03;;;1.13;100.00
7962;BME280;4026;43.652;24.906;2023-01-10T00:10:29;98486.69;;;1.21;100.00
7962;BME280;4026;43.652;24.906;2023-01-10T00:12:56;98482.59;;;0.99;100.00
7962;BME280;4026;43.652;24.906;2023-01-10T00:15:43;98479.19;;;1.00;100.00
7962;BME280;4026;43.652;24.906;2023-01-10T00:18:09;98465.44;;;1.07;100.00
7962;BME280;4026;43.652;24.906;2023-01-10T00:20:37;98466.00;;;1.14;100.00
7962;BME280;4026;43.652;24.906;2023-01-10T00:23:04;98469.53;;;0.91;100.00
7962;BME280;4026;43.652;24.906;2023-01-10T00:25:31;98469.13;;;1.00;100.00
7962;BME280;4026;43.652;24.906;2023-01-10T00:28:00;98467.63;;;1.15;100.00
7962;BME280;4026;43.652;24.906;2023-01-10T00:30:32;98470.88;;;0.98;100.00
7962;BME280;4026;43.652;24.906;2023-01-10T00:33:01;98484.22;;;1.00;100.00
7962;BME280;4026;43.652;24.906;2023-01-10T00:35:30;98485.63;;;0.87;100.00
7962;BME280;4026;43.652;24.906;2023-01-10T00:37:57;98481.75;;;0.99;100.00
7962;BME280;4026;43.652;24.906;2023-01-10T00:40:26;98483.97;;;1.06;100.00
7962;BME280;4026;43.652;24.906;2023-01-10T00:42:53;98477.56;;;1.18;100.00
7962;BME280;4026;43.652;24.906;2023-01-10T00:45:37;98469.41;;;1.13;100.00
7962;BME280;4026;43.652;24.906;2023-01-10T00:48:05;98477.44;;;1.02;100.00
7962;BME280;4026;43.652;24.906;2023-01-10T00:50:32;98469.63;;;1.08;100.00
7962;BME280;4026;43.652;24.906;2023-01-10T00:52:59;98471.91;;;1.13;100.00
7962;BME280;4026;43.652;24.906;2023-01-10T00:55:26;98470.69;;;1.22;100.00
7962;BME280;4026;43.652;24.906;2023-01-10T00:57:53;98476.63;;;1.21;100.00
7962;BME280;4026;43.652;24.906;2023-01-10T01:00:19;98479.09;;;1.02;100.00
7962;BME280;4026;43.652;24.906;2023-01-10T01:02:46;98480.34;;;1.12;100.00
7962;BME280;4026;43.652;24.906;2023-01-10T01:05:17;98489.22;;;1.21;100.00
7962;BME280;4026;43.652;24.906;2023-01-10T01:07:47;98481.09;;;0.95;100.00
7962;BME280;4026;43.652;24.906;2023-01-10T01:10:14;98467.09;;;1.08;100.00
7962;BME280;4026;43.652;24.906;2023-01-10T01:12:53;98483.16;;;1.25;100.00
7962;BME280;4026;43.652;24.906;2023-01-10T01:15:20;98472.41;;;1.21;100.00
7962;BME280;4026;43.652;24.906;2023-01-10T01:17:47;98474.72;;;1.26;100.00
7962;BME280;4026;43.652;24.906;2023-01-10T01:20:15;98476.34;;;1.27;100.00
7962;BME280;4026;43.652;24.906;2023-01-10T01:22:43;98463.63;;;1.30;100.00
7962;BME280;4026;43.652;24.906;2023-01-10T01:25:10;98473.22;;;1.22;100.00
7962;BME280;4026;43.652;24.906;2023-01-10T01:27:37;98468.59;;;1.12;100.00
7962;BME280;4026;43.652;24.906;2023-01-10T01:30:04;98462.41;;;1.20;100.00
7962;BME280;4026;43.652;24.906;2023-01-10T01:32:32;98459.91;;;1.20;100.00
7962;BME280;4026;43.652;24.906;2023-01-10T01:34:59;98455.81;;;1.17;100.00
7962;BME280;4026;43.652;24.906;2023-01-10T01:37:26;98455.38;;;1.07;100.00
7962;BME280;4026;43.652;24.906;2023-01-10T01:39:54;98454.56;;;1.07;100.00
7962;BME280;4026;43.652;24.906;2023-01-10T01:42:24;98450.19;;;1.10;100.00
7962;BME280;4026;43.652;24.906;2023-01-10T01:48:04;98458.59;;;1.30;100.00
7962;BME280;4026;43.652;24.906;2023-01-10T01:50:37;98454.03;;;1.19;100.00
7962;BME280;4026;43.652;24.906;2023-01-10T01:53:08;98462.13;;;1.26;100.00
7962;BME280;4026;43.652;24.906;2023-01-10T01:55:37;98461.78;;;1.15;100.00
7962;BME280;4026;43.652;24.906;2023-01-10T01:58:08;98454.31;;;1.32;100.00
7962;BME280;4026;43.652;24.906;2023-01-10T02:00:38;98456.88;;;1.30;100.00
7962;BME280;4026;43.652;24.906;2023-01-10T02:03:05;98448.47;;;1.31;100.00
7962;BME280;4026;43.652;24.906;2023-01-10T02:05:34;98453.75;;;1.44;100.00
7962;BME280;4026;43.652;24.906;2023-01-10T02:08:02;98444.78;;;1.20;100.00
7962;BME280;4026;43.652;24.906;2023-01-10T02:10:32;98431.84;;;1.08;100.00
7962;BME280;4026;43.652;24.906;2023-01-10T02:13:05;98436.75;;;1.11;100.00
7962;BME280;4026;43.652;24.906;2023-01-10T02:15:34;98411.03;;;0.86;100.00
7962;BME280;4026;43.652;24.906;2023-01-10T02:18:01;98398.25;;;0.90;100.00
7962;BME280;4026;43.652;24.906;2023-01-10T02:20:36;98396.31;;;0.96;100.00
7962;BME280;4026;43.652;24.906;2023-01-10T02:26:29;98379.84;;;1.07;100.00
7962;BME280;4026;43.652;24.906;2023-01-10T02:29:28;98382.47;;;1.06;100.00
7962;BME280;4026;43.652;24.906;2023-01-10T02:32:12;98395.66;;;0.92;100.00
7962;BME280;4026;43.652;24.906;2023-01-10T02:34:52;98398.53;;;0.84;100.00
7962;BME280;4026;43.652;24.906;2023-01-10T02:37:35;98399.34;;;0.85;100.00
7962;BME280;4026;43.652;24.906;2023-01-10T02:40:10;98395.38;;;0.98;100.00
7962;BME280;4026;43.652;24.906;2023-01-10T02:42:45;98398.22;;;1.09;100.00
7962;BME280;4026;43.652;24.906;2023-01-10T02:45:17;98409.72;;;1.15;100.00
7962;BME280;4026;43.652;24.906;2023-01-10T02:47:48;98390.13;;;1.22;100.00
7962;BME280;4026;43.652;24.906;2023-01-10T02:50:42;98388.44;;;1.03;100.00
7962;BME280;4026;43.652;24.906;2023-01-10T02:53:13;98391.56;;;1.08;100.00
7962;BME280;4026;43.652;24.906;2023-01-10T02:55:56;98387.16;;;1.13;100.00
7962;BME280;4026;43.652;24.906;2023-01-10T02:58:34;98385.84;;;1.24;100.00
7962;BME280;4026;43.652;24.906;2023-01-10T03:01:06;98383.00;;;1.12;100.00
7962;BME280;4026;43.652;24.906;2023-01-10T03:03:42;98370.69;;;1.25;100.00
7962;BME280;4026;43.652;24.906;2023-01-10T03:06:20;98372.91;;;1.12;100.00
7962;BME280;4026;43.652;24.906;2023-01-10T03:08:54;98360.28;;;1.14;100.00
7962;BME280;4026;43.652;24.906;2023-01-10T03:11:25;98347.63;;;0.97;100.00
7962;BME280;4026;43.652;24.906;2023-01-10T03:14:09;98347.56;;;0.98;100.00
7962;BME280;4026;43.652;24.906;2023-01-10T03:16:41;98340.28;;;0.92;100.00
7962;BME280;4026;43.652;24.906;2023-01-10T03:19:12;98339.94;;;1.00;100.00
7962;BME280;4026;43.652;24.906;2023-01-10T03:21:42;98333.34;;;0.78;100.00
7962;BME280;4026;43.652;24.906;2023-01-10T03:24:12;98337.16;;;0.87;100.00
7962;BME280;4026;43.652;24.906;2023-01-10T03:26:46;98350.50;;;0.89;100.00
7962;BME280;4026;43.652;24.906;2023-01-10T03:29:19;98346.81;;;0.77;100.00
7962;BME280;4026;43.652;24.906;2023-01-10T03:31:52;98337.28;;;0.84;100.00
7962;BME280;4026;43.652;24.906;2023-01-10T03:34:22;98334.69;;;1.04;100.00
7962;BME280;4026;43.652;24.906;2023-01-10T03:36:59;98329.94;;;0.98;100.00
7962;BME280;4026;43.652;24.906;2023-01-10T03:39:32;98313.69;;;1.05;100.00
7962;BME280;4026;43.652;24.906;2023-01-10T03:42:07;98314.03;;;0.98;100.00
7962;BME280;4026;43.652;24.906;2023-01-10T03:44:40;98309.22;;;1.10;100.00
7962;BME280;4026;43.652;24.906;2023-01-10T03:47:14;98301.53;;;0.96;100.00
7962;BME280;4026;43.652;24.906;2023-01-10T03:49:46;98307.94;;;1.02;100.00
7962;BME280;4026;43.652;24.906;2023-01-10T03:52:16;98311.31;;;1.02;100.00
7962;BME280;4026;43.652;24.906;2023-01-10T03:54:44;98309.38;;;1.07;100.00
7962;BME280;4026;43.652;24.906;2023-01-10T03:57:16;98314.41;;;1.07;100.00
7962;BME280;4026;43.652;24.906;2023-01-10T03:59:43;98316.19;;;1.05;100.00
7962;BME280;4026;43.652;24.906;2023-01-10T04:02:10;98325.31;;;1.08;100.00
7962;BME280;4026;43.652;24.906;2023-01-10T04:04:37;98324.47;;;1.07;100.00
7962;BME280;4026;43.652;24.906;2023-01-10T04:07:05;98318.63;;;1.07;100.00
7962;BME280;4026;43.652;24.906;2023-01-10T04:09:32;98323.50;;;1.29;100.00
7962;BME280;4026;43.652;24.906;2023-01-10T04:11:59;98320.91;;;1.30;100.00
7962;BME280;4026;43.652;24.906;2023-01-10T04:14:26;98332.97;;;1.24;100.00
7962;BME280;4026;43.652;24.906;2023-01-10T04:16:53;98334.19;;;1.34;100.00
7962;BME280;4026;43.652;24.906;2023-01-10T04:19:20;98342.03;;;1.45;100.00
7962;BME280;4026;43.652;24.906;2023-01-10T04:21:47;98342.91;;;1.44;100.00
7962;BME280;4026;43.652;24.906;2023-01-10T04:24:15;98351.25;;;1.81;100.00
7962;BME280;4026;43.652;24.906;2023-01-10T04:26:42;98344.22;;;1.70;100.00
7962;BME280;4026;43.652;24.906;2023-01-10T04:29:09;98347.69;;;1.85;100.00
7962;BME280;4026;43.652;24.906;2023-01-10T04:31:36;98351.38;;;2.13;100.00
7962;BME280;4026;43.652;24.906;2023-01-10T04:34:04;98353.94;;;1.95;100.00
7962;BME280;4026;43.652;24.906;2023-01-10T04:36:31;98342.00;;;1.81;100.00
7962;BME280;4026;43.652;24.906;2023-01-10T04:38:58;98349.47;;;1.83;100.00
7962;BME280;4026;43.652;24.906;2023-01-10T04:41:26;98344.50;;;1.81;100.00
7962;BME280;4026;43.652;24.906;2023-01-10T04:43:53;98342.94;;;1.79;100.00
7962;BME280;4026;43.652;24.906;2023-01-10T04:46:20;98340.28;;;1.82;100.00
7962;BME280;4026;43.652;24.906;2023-01-10T04:48:47;98331.09;;;1.81;100.00
7962;BME280;4026;43.652;24.906;2023-01-10T04:51:14;98326.41;;;1.91;100.00
7962;BME280;4026;43.652;24.906;2023-01-10T04:53:41;98329.03;;;1.89;100.00
7962;BME280;4026;43.652;24.906;2023-01-10T04:56:09;98327.88;;;1.95;100.00
7962;BME280;4026;43.652;24.906;2023-01-10T04:58:41;98310.16;;;1.96;100.00
7962;BME280;4026;43.652;24.906;2023-01-10T05:01:09;98315.38;;;1.93;100.00
7962;BME280;4026;43.652;24.906;2023-01-10T05:03:37;98328.25;;;2.04;100.00
7962;BME280;4026;43.652;24.906;2023-01-10T05:06:04;98325.13;;;1.99;100.00
7962;BME280;4026;43.652;24.906;2023-01-10T05:08:31;98314.25;;;1.99;100.00
7962;BME280;4026;43.652;24.906;2023-01-10T05:10:58;98308.41;;;1.98;100.00
7962;BME280;4026;43.652;24.906;2023-01-10T05:13:25;98304.66;;;2.06;100.00
7962;BME280;4026;43.652;24.906;2023-01-10T05:15:54;98307.03;;;2.09;100.00
7962;BME280;4026;43.652;24.906;2023-01-10T05:18:22;98312.38;;;2.02;100.00
7962;BME280;4026;43.652;24.906;2023-01-10T05:20:49;98295.91;;;2.13;100.00
7962;BME280;4026;43.652;24.906;2023-01-10T05:23:16;98317.41;;;2.20;100.00
7962;BME280;4026;43.652;24.906;2023-01-10T05:25:43;98321.66;;;2.35;100.00
7962;BME280;4026;43.652;24.906;2023-01-10T05:28:10;98317.66;;;2.15;100.00
7962;BME280;4026;43.652;24.906;2023-01-10T05:30:37;98316.81;;;2.15;100.00
7962;BME280;4026;43.652;24.906;2023-01-10T05:33:05;98305.47;;;2.06;100.00
7962;BME280;4026;43.652;24.906;2023-01-10T05:35:32;98302.72;;;2.11;100.00
7962;BME280;4026;43.652;24.906;2023-01-10T05:37:59;98308.78;;;2.24;100.00
7962;BME280;4026;43.652;24.906;2023-01-10T05:40:26;98304.31;;;2.29;100.00
7962;BME280;4026;43.652;24.906;2023-01-10T05:42:53;98303.72;;;2.24;100.00
7962;BME280;4026;43.652;24.906;2023-01-10T05:45:20;98298.69;;;2.24;100.00
7962;BME280;4026;43.652;24.906;2023-01-10T05:47:47;98305.53;;;2.22;100.00
7962;BME280;4026;43.652;24.906;2023-01-10T05:50:15;98313.09;;;2.22;100.00
7962;BME280;4026;43.652;24.906;2023-01-10T05:52:42;98327.31;;;2.23;100.00
7962;BME280;4026;43.652;24.906;2023-01-10T05:55:09;98323.09;;;2.23;100.00
7962;BME280;4026;43.652;24.906;2023-01-10T05:57:36;98324.06;;;2.21;100.00
7962;BME280;4026;43.652;24.906;2023-01-10T06:00:04;98325.56;;;2.25;100.00
7962;BME280;4026;43.652;24.906;2023-01-10T06:02:31;98329.94;;;2.21;100.00
7962;BME280;4026;43.652;24.906;2023-01-10T06:04:58;98315.63;;;2.22;100.00
7962;BME280;4026;43.652;24.906;2023-01-10T06:07:26;98321.69;;;2.18;100.00
7962;BME280;4026;43.652;24.906;2023-01-10T06:09:53;98314.97;;;2.18;100.00
7962;BME280;4026;43.652;24.906;2023-01-10T06:12:20;98322.13;;;2.26;100.00
7962;BME280;4026;43.652;24.906;2023-01-10T06:14:47;98313.22;;;2.36;100.00
7962;BME280;4026;43.652;24.906;2023-01-10T06:17:13;98309.28;;;2.31;100.00
7962;BME280;4026;43.652;24.906;2023-01-10T06:19:40;98315.81;;;2.35;100.00
7962;BME280;4026;43.652;24.906;2023-01-10T06:22:07;98320.25;;;2.30;100.00
7962;BME280;4026;43.652;24.906;2023-01-10T06:24:35;98326.38;;;2.41;100.00
7962;BME280;4026;43.652;24.906;2023-01-10T06:27:02;98321.50;;;2.38;100.00
7962;BME280;4026;43.652;24.906;2023-01-10T06:29:29;98322.94;;;2.26;100.00
7962;BME280;4026;43.652;24.906;2023-01-10T06:31:56;98317.56;;;2.17;100.00
7962;BME280;4026;43.652;24.906;2023-01-10T06:34:23;98320.34;;;2.28;100.00
7962;BME280;4026;43.652;24.906;2023-01-10T06:36:50;98316.16;;;2.44;100.00
7962;BME280;4026;43.652;24.906;2023-01-10T06:39:17;98320.47;;;2.42;100.00
7962;BME280;4026;43.652;24.906;2023-01-10T06:41:45;98318.53;;;2.63;100.00
7962;BME280;4026;43.652;24.906;2023-01-10T06:44:12;98316.50;;;2.70;100.00
7962;BME280;4026;43.652;24.906;2023-01-10T06:46:39;98328.38;;;2.52;100.00
7962;BME280;4026;43.652;24.906;2023-01-10T06:49:06;98312.72;;;2.45;100.00
7962;BME280;4026;43.652;24.906;2023-01-10T06:51:33;98314.03;;;2.53;100.00
7962;BME280;4026;43.652;24.906;2023-01-10T06:54:00;98315.53;;;2.57;100.00
7962;BME280;4026;43.652;24.906;2023-01-10T06:56:26;98317.31;;;2.70;100.00
7962;BME280;4026;43.652;24.906;2023-01-10T06:58:55;98312.75;;;2.77;100.00
7962;BME280;4026;43.652;24.906;2023-01-10T07:01:21;98320.97;;;2.81;100.00
7962;BME280;4026;43.652;24.906;2023-01-10T07:03:48;98319.75;;;2.72;100.00
7962;BME280;4026;43.652;24.906;2023-01-10T07:06:15;98327.41;;;2.86;100.00
7962;BME280;4026;43.652;24.906;2023-01-10T07:08:43;98327.41;;;2.86;100.00
7962;BME280;4026;43.652;24.906;2023-01-10T07:11:12;98332.31;;;2.89;100.00
7962;BME280;4026;43.652;24.906;2023-01-10T07:13:40;98331.22;;;2.93;100.00
7962;BME280;4026;43.652;24.906;2023-01-10T07:16:10;98348.28;;;3.06;100.00
7962;BME280;4026;43.652;24.906;2023-01-10T07:18:38;98385.75;;;3.29;100.00
7962;BME280;4026;43.652;24.906;2023-01-10T07:21:05;98409.78;;;3.21;100.00
7962;BME280;4026;43.652;24.906;2023-01-10T07:23:33;98414.56;;;3.25;100.00
7962;BME280;4026;43.652;24.906;2023-01-10T07:26:02;98407.75;;;3.27;100.00
7962;BME280;4026;43.652;24.906;2023-01-10T07:28:29;98406.59;;;3.33;100.00
7962;BME280;4026;43.652;24.906;2023-01-10T07:30:59;98389.38;;;3.39;100.00
7962;BME280;4026;43.652;24.906;2023-01-10T07:33:28;98382.47;;;3.27;100.00
7962;BME280;4026;43.652;24.906;2023-01-10T07:35:55;98376.03;;;3.37;100.00
7962;BME280;4026;43.652;24.906;2023-01-10T07:38:22;98375.44;;;3.64;100.00
7962;BME280;4026;43.652;24.906;2023-01-10T07:40:49;98373.06;;;3.61;100.00
7962;BME280;4026;43.652;24.906;2023-01-10T07:43:16;98370.38;;;3.64;100.00
7962;BME280;4026;43.652;24.906;2023-01-10T07:45:43;98369.84;;;3.73;100.00
7962;BME280;4026;43.652;24.906;2023-01-10T07:48:10;98363.31;;;3.69;100.00
7962;BME280;4026;43.652;24.906;2023-01-10T07:50:38;98359.31;;;3.51;100.00
7962;BME280;4026;43.652;24.906;2023-01-10T07:53:06;98349.63;;;3.73;100.00
7962;BME280;4026;43.652;24.906;2023-01-10T07:55:35;98351.44;;;3.71;100.00
7962;BME280;4026;43.652;24.906;2023-01-10T07:58:04;98344.22;;;3.79;100.00
7962;BME280;4026;43.652;24.906;2023-01-10T08:00:32;98341.50;;;3.68;100.00
7962;BME280;4026;43.652;24.906;2023-01-10T08:02:59;98346.38;;;3.71;100.00
7962;BME280;4026;43.652;24.906;2023-01-10T08:05:26;98336.44;;;3.68;100.00
7962;BME280;4026;43.652;24.906;2023-01-10T08:07:54;98343.28;;;3.66;100.00
7962;BME280;4026;43.652;24.906;2023-01-10T08:10:25;98329.66;;;3.69;100.00
7962;BME280;4026;43.652;24.906;2023-01-10T08:12:51;98337.16;;;3.70;100.00
7962;BME280;4026;43.652;24.906;2023-01-10T08:15:18;98333.69;;;3.57;100.00
7962;BME280;4026;43.652;24.906;2023-01-10T08:17:45;98347.69;;;3.62;100.00
7962;BME280;4026;43.652;24.906;2023-01-10T08:20:12;98345.09;;;3.64;100.00
7962;BME280;4026;43.652;24.906;2023-01-10T08:22:39;98345.03;;;3.50;100.00
7962;BME280;4026;43.652;24.906;2023-01-10T08:25:08;98347.88;;;3.59;100.00
7962;BME280;4026;43.652;24.906;2023-01-10T08:27:35;98352.38;;;3.84;100.00
7962;BME280;4026;43.652;24.906;2023-01-10T08:30:02;98348.69;;;3.60;100.00
7962;BME280;4026;43.652;24.906;2023-01-10T08:32:29;98344.94;;;3.67;100.00
7962;BME280;4026;43.652;24.906;2023-01-10T08:34:56;98343.44;;;3.63;100.00
7962;BME280;4026;43.652;24.906;2023-01-10T08:37:23;98339.53;;;3.73;100.00
7962;BME280;4026;43.652;24.906;2023-01-10T08:39:50;98344.78;;;3.84;100.00
7962;BME280;4026;43.652;24.906;2023-01-10T08:42:18;98349.97;;;4.12;100.00
7962;BME280;4026;43.652;24.906;2023-01-10T08:44:45;98365.19;;;4.40;100.00
7962;BME280;4026;43.652;24.906;2023-01-10T08:47:12;98367.78;;;4.24;100.00
7962;BME280;4026;43.652;24.906;2023-01-10T08:49:39;98360.66;;;4.31;100.00
7962;BME280;4026;43.652;24.906;2023-01-10T08:52:06;98359.50;;;4.37;100.00
7962;BME280;4026;43.652;24.906;2023-01-10T08:54:33;98350.06;;;4.53;100.00
7962;BME280;4026;43.652;24.906;2023-01-10T08:57:00;98348.53;;;4.65;100.00
7962;BME280;4026;43.652;24.906;2023-01-10T08:59:28;98342.03;;;4.75;100.00
7962;BME280;4026;43.652;24.906;2023-01-10T09:01:55;98331.72;;;4.78;100.00
7962;BME280;4026;43.652;24.906;2023-01-10T09:04:23;98316.56;;;4.91;100.00
7962;BME280;4026;43.652;24.906;2023-01-10T09:06:50;98311.16;;;4.83;100.00
7962;BME280;4026;43.652;24.906;2023-01-10T09:09:17;98321.22;;;4.70;100.00
7962;BME280;4026;43.652;24.906;2023-01-10T09:11:44;98331.09;;;4.74;100.00
7962;BME280;4026;43.652;24.906;2023-01-10T09:14:11;98332.72;;;4.61;100.00
7962;BME280;4026;43.652;24.906;2023-01-10T09:16:40;98327.41;;;4.66;100.00
7962;BME280;4026;43.652;24.906;2023-01-10T09:19:07;98311.09;;;4.70;100.00
7962;BME280;4026;43.652;24.906;2023-01-10T09:21:34;98310.28;;;4.69;100.00
7962;BME280;4026;43.652;24.906;2023-01-10T09:24:01;98295.00;;;4.71;100.00
7962;BME280;4026;43.652;24.906;2023-01-10T09:26:27;98296.91;;;4.67;100.00
7962;BME280;4026;43.652;24.906;2023-01-10T09:28:54;98278.81;;;4.73;100.00
7962;BME280;4026;43.652;24.906;2023-01-10T09:31:21;98286.00;;;4.80;100.00
7962;BME280;4026;43.652;24.906;2023-01-10T09:33:49;98285.47;;;4.89;100.00
7962;BME280;4026;43.652;24.906;2023-01-10T09:36:16;98290.78;;;4.98;100.00
7962;BME280;4026;43.652;24.906;2023-01-10T09:38:43;98279.88;;;4.84;100.00
7962;BME280;4026;43.652;24.906;2023-01-10T09:41:18;98272.94;;;5.00;100.00
7962;BME280;4026;43.652;24.906;2023-01-10T09:43:57;98268.72;;;5.13;100.00
7962;BME280;4026;43.652;24.906;2023-01-10T09:46:31;98282.38;;;4.98;100.00
7962;BME280;4026;43.652;24.906;2023-01-10T09:49:13;98293.66;;;5.07;100.00
7962;BME280;4026;43.652;24.906;2023-01-10T09:51:45;98287.84;;;4.78;100.00
7962;BME280;4026;43.652;24.906;2023-01-10T09:54:17;98284.94;;;4.84;100.00
7962;BME280;4026;43.652;24.906;2023-01-10T09:56:46;98287.09;;;4.90;100.00
7962;BME280;4026;43.652;24.906;2023-01-10T09:59:17;98274.78;;;4.98;100.00
7962;BME280;4026;43.652;24.906;2023-01-10T10:01:46;98267.88;;;5.00;100.00
7962;BME280;4026;43.652;24.906;2023-01-10T10:04:21;98260.41;;;5.11;100.00
7962;BME280;4026;43.652;24.906;2023-01-10T10:06:49;98262.25;;;5.09;100.00
7962;BME280;4026;43.652;24.906;2023-01-10T10:09:23;98262.25;;;5.09;100.00
7962;BME280;4026;43.652;24.906;2023-01-10T10:12:20;98264.88;;;5.20;100.00
7962;BME280;4026;43.652;24.906;2023-01-10T10:14:59;98264.47;;;5.14;100.00
7962;BME280;4026;43.652;24.906;2023-01-10T10:17:38;98273.03;;;5.26;100.00
7962;BME280;4026;43.652;24.906;2023-01-10T10:20:18;98271.25;;;5.13;100.00
7962;BME280;4026;43.652;24.906;2023-01-10T10:22:55;98271.41;;;5.25;100.00
7962;BME280;4026;43.652;24.906;2023-01-10T10:25:44;98259.06;;;5.33;100.00
7962;BME280;4026;43.652;24.906;2023-01-10T10:28:45;98254.88;;;5.32;100.00
7962;BME280;4026;43.652;24.906;2023-01-10T10:31:20;98238.78;;;5.33;100.00
7962;BME280;4026;43.652;24.906;2023-01-10T10:33:57;98238.38;;;5.39;100.00
7962;BME280;4026;43.652;24.906;2023-01-10T10:36:34;98234.31;;;5.36;100.00
7962;BME280;4026;43.652;24.906;2023-01-10T10:39:04;98227.19;;;5.29;100.00
7962;BME280;4026;43.652;24.906;2023-01-10T10:41:34;98212.72;;;5.31;100.00
7962;BME280;4026;43.652;24.906;2023-01-10T10:44:11;98209.19;;;5.33;100.00
7962;BME280;4026;43.652;24.906;2023-01-10T10:46:44;98205.22;;;5.55;100.00
7962;BME280;4026;43.652;24.906;2023-01-10T10:49:15;98193.97;;;5.46;100.00
7962;BME280;4026;43.652;24.906;2023-01-10T10:51:50;98191.22;;;5.49;100.00
7962;BME280;4026;43.652;24.906;2023-01-10T10:54:17;98170.25;;;5.47;100.00
7962;BME280;4026;43.652;24.906;2023-01-10T10:56:45;98167.78;;;5.58;100.00
7962;BME280;4026;43.652;24.906;2023-01-10T10:59:16;98162.66;;;5.47;100.00
7962;BME280;4026;43.652;24.906;2023-01-10T11:01:44;98161.72;;;5.48;100.00
7962;BME280;4026;43.652;24.906;2023-01-10T11:04:15;98164.56;;;5.43;100.00
7962;BME280;4026;43.652;24.906;2023-01-10T11:06:45;98160.91;;;5.35;100.00
7962;BME280;4026;43.652;24.906;2023-01-10T11:09:16;98160.91;;;5.35;100.00
7962;BME280;4026;43.652;24.906;2023-01-10T11:11:46;98157.28;;;5.39;100.00
7962;BME280;4026;43.652;24.906;2023-01-10T11:14:40;98161.72;;;5.22;100.00
7962;BME280;4026;43.652;24.906;2023-01-10T11:17:20;98151.78;;;5.19;100.00
7962;BME280;4026;43.652;24.906;2023-01-10T11:19:58;98160.25;;;5.06;100.00
7962;BME280;4026;43.652;24.906;2023-01-10T11:22:30;98153.22;;;5.24;100.00
7962;BME280;4026;43.652;24.906;2023-01-10T11:25:00;98148.63;;;5.29;100.00
7962;BME280;4026;43.652;24.906;2023-01-10T11:27:29;98149.97;;;5.21;100.00
7962;BME280;4026;43.652;24.906;2023-01-10T11:29:59;98136.78;;;5.16;100.00
7962;BME280;4026;43.652;24.906;2023-01-10T11:32:33;98136.97;;;5.13;100.00
7962;BME280;4026;43.652;24.906;2023-01-10T11:35:04;98138.91;;;5.22;100.00
7962;BME280;4026;43.652;24.906;2023-01-10T11:37:35;98146.91;;;5.16;100.00
7962;BME280;4026;43.652;24.906;2023-01-10T11:40:19;98140.63;;;5.09;100.00
7962;BME280;4026;43.652;24.906;2023-01-10T11:42:49;98139.00;;;5.08;100.00
7962;BME280;4026;43.652;24.906;2023-01-10T11:45:28;98143.84;;;4.98;100.00
7962;BME280;4026;43.652;24.906;2023-01-10T11:48:05;98142.84;;;5.01;100.00
7962;BME280;4026;43.652;24.906;2023-01-10T11:50:35;98135.34;;;4.99;100.00
7962;BME280;4026;43.652;24.906;2023-01-10T11:53:04;98129.66;;;4.96;100.00
7962;BME280;4026;43.652;24.906;2023-01-10T11:55:33;98124.19;;;5.02;100.00
7962;BME280;4026;43.652;24.906;2023-01-10T11:58:04;98136.13;;;5.00;100.00
7962;BME280;4026;43.652;24.906;2023-01-10T12:00:35;98125.63;;;5.06;100.00
7962;BME280;4026;43.652;24.906;2023-01-10T12:03:15;98125.81;;;5.03;100.00
7962;BME280;4026;43.652;24.906;2023-01-10T12:05:50;98113.88;;;5.05;100.00
7962;BME280;4026;43.652;24.906;2023-01-10T12:08:28;98114.50;;;5.21;100.00
7962;BME280;4026;43.652;24.906;2023-01-10T12:10:58;98117.34;;;5.30;100.00
7962;BME280;4026;43.652;24.906;2023-01-10T12:13:27;98113.28;;;5.27;100.00
7962;BME280;4026;43.652;24.906;2023-01-10T12:16:19;98107.19;;;5.30;100.00
7962;BME280;4026;43.652;24.906;2023-01-10T12:18:47;98096.00;;;4.94;100.00
7962;BME280;4026;43.652;24.906;2023-01-10T12:21:18;98097.25;;;5.01;100.00
7962;BME280;4026;43.652;24.906;2023-01-10T12:23:48;98101.72;;;5.10;100.00
7962;BME280;4026;43.652;24.906;2023-01-10T12:26:16;98103.44;;;5.22;100.00
7962;BME280;4026;43.652;24.906;2023-01-10T12:28:49;98111.84;;;5.36;100.00
7962;BME280;4026;43.652;24.906;2023-01-10T12:31:20;98104.88;;;5.27;100.00
7962;BME280;4026;43.652;24.906;2023-01-10T12:33:52;98101.19;;;5.31;100.00
7962;BME280;4026;43.652;24.906;2023-01-10T12:36:32;98102.72;;;5.46;100.00
7962;BME280;4026;43.652;24.906;2023-01-10T12:39:07;98096.53;;;5.50;100.00
7962;BME280;4026;43.652;24.906;2023-01-10T12:41:47;98098.44;;;5.59;100.00
7962;BME280;4026;43.652;24.906;2023-01-10T12:44:35;98093.59;;;5.56;100.00
7962;BME280;4026;43.652;24.906;2023-01-10T12:47:09;98096.22;;;5.67;100.00
7962;BME280;4026;43.652;24.906;2023-01-10T12:49:43;98087.28;;;5.49;100.00
7962;BME280;4026;43.652;24.906;2023-01-10T12:52:17;98077.47;;;5.44;100.00
7962;BME280;4026;43.652;24.906;2023-01-10T12:54:48;98074.94;;;5.32;100.00
7962;BME280;4026;43.652;24.906;2023-01-10T12:57:24;98088.31;;;5.34;100.00
7962;BME280;4026;43.652;24.906;2023-01-10T12:59:54;98098.06;;;5.40;100.00
7962;BME280;4026;43.652;24.906;2023-01-10T13:02:25;98098.84;;;5.40;100.00
7962;BME280;4026;43.652;24.906;2023-01-10T13:04:55;98102.00;;;5.31;100.00
7962;BME280;4026;43.652;24.906;2023-01-10T13:07:26;98099.69;;;5.28;100.00
7962;BME280;4026;43.652;24.906;2023-01-10T13:10:00;98093.31;;;5.10;100.00
7962;BME280;4026;43.652;24.906;2023-01-10T13:12:31;98096.72;;;4.96;100.00
7962;BME280;4026;43.652;24.906;2023-01-10T13:15:05;98100.59;;;4.89;100.00
7962;BME280;4026;43.652;24.906;2023-01-10T13:17:41;98094.41;;;4.93;100.00
7962;BME280;4026;43.652;24.906;2023-01-10T13:20:37;98101.78;;;4.83;100.00
7962;BME280;4026;43.652;24.906;2023-01-10T13:23:27;98100.28;;;4.81;100.00
7962;BME280;4026;43.652;24.906;2023-01-10T13:25:59;98092.22;;;4.61;100.00
7962;BME280;4026;43.652;24.906;2023-01-10T13:28:28;98100.53;;;4.63;100.00
7962;BME280;4026;43.652;24.906;2023-01-10T13:30:58;98105.00;;;4.72;100.00
7962;BME280;4026;43.652;24.906;2023-01-10T13:33:28;98106.13;;;4.68;100.00